sensor_id;sensor_type;location;lat;lon;timestamp;temperature;humidity
49413;DHT22;35493;50.276;9.372;2023-03-14T00:02:20;10.10;88.90
49413;DHT22;35493;50.276;9.372;2023-03-14T00:04:55;10.10;88.90
49413;DHT22;35493;50.276;9.372;2023-03-14T00:07:29;10.20;88.80
49413;DHT22;35493;50.276;9.372;2023-03-14T00:10:08;10.10;88.70
49413;DHT22;35493;50.276;9.372;2023-03-14T00:12:43;10.20;88.70
49413;DHT22;35493;50.276;9.372;2023-03-14T00:15:17;10.20;88.70
49413;DHT22;35493;50.276;9.372;2023-03-14T00:17:50;10.20;88.70
49413;DHT22;35493;50.276;9.372;2023-03-14T00:20:24;10.20;88.60
49413;DHT22;35493;50.276;9.372;2023-03-14T00:22:58;10.20;88.50
49413;DHT22;35493;50.276;9.372;2023-03-14T00:25:31;10.20;88.40
49413;DHT22;35493;50.276;9.372;2023-03-14T00:28:04;10.20;88.30
49413;DHT22;35493;50.276;9.372;2023-03-14T00:30:39;10.20;88.40
49413;DHT22;35493;50.276;9.372;2023-03-14T00:33:20;10.20;88.30
49413;DHT22;35493;50.276;9.372;2023-03-14T00:35:55;10.20;88.20
49413;DHT22;35493;50.276;9.372;2023-03-14T00:38:30;10.20;88.10
49413;DHT22;35493;50.276;9.372;2023-03-14T00:41:05;10.20;88.00
49413;DHT22;35493;50.276;9.372;2023-03-14T00:43:39;10.30;88.00
49413;DHT22;35493;50.276;9.372;2023-03-14T00:46:13;10.20;88.00
49413;DHT22;35493;50.276;9.372;2023-03-14T00:48:47;10.20;87.90
49413;DHT22;35493;50.276;9.372;2023-03-14T00:51:24;10.30;87.80
49413;DHT22;35493;50.276;9.372;2023-03-14T00:53:57;10.30;87.80
49413;DHT22;35493;50.276;9.372;2023-03-14T00:56:30;10.30;87.80
49413;DHT22;35493;50.276;9.372;2023-03-14T00:59:04;10.30;87.70
49413;DHT22;35493;50.276;9.372;2023-03-14T01:01:37;10.30;87.60
49413;DHT22;35493;50.276;9.372;2023-03-14T01:04:12;10.30;87.60
49413;DHT22;35493;50.276;9.372;2023-03-14T01:06:47;10.30;87.60
49413;DHT22;35493;50.276;9.372;2023-03-14T01:09:21;10.30;87.50
49413;DHT22;35493;50.276;9.372;2023-03-14T01:11:54;10.30;87.30
49413;DHT22;35493;50.276;9.372;2023-03-14T01:14:27;10.30;87.30
49413;DHT22;35493;50.276;9.372;2023-03-14T01:17:00;10.40;87.30
49413;DHT22;35493;50.276;9.372;2023-03-14T01:19:33;10.30;87.30
49413;DHT22;35493;50.276;9.372;2023-03-14T01:22:08;10.30;87.20
49413;DHT22;35493;50.276;9.372;2023-03-14T01:24:42;10.30;87.20
49413;DHT22;35493;50.276;9.372;2023-03-14T01:27:15;10.20;87.10
49413;DHT22;35493;50.276;9.372;2023-03-14T01:29:47;10.30;87.10
49413;DHT22;35493;50.276;9.372;2023-03-14T01:32:20;10.30;87.10
49413;DHT22;35493;50.276;9.372;2023-03-14T01:35:08;10.20;87.00
49413;DHT22;35493;50.276;9.372;2023-03-14T01:37:43;10.20;87.00
49413;DHT22;35493;50.276;9.372;2023-03-14T01:40:20;10.20;86.90
49413;DHT22;35493;50.276;9.372;2023-03-14T01:42:57;10.20;86.80
49413;DHT22;35493;50.276;9.372;2023-03-14T01:46:11;10.20;86.90
49413;DHT22;35493;50.276;9.372;2023-03-14T01:48:50;10.20;87.00
49413;DHT22;35493;50.276;9.372;2023-03-14T01:51:30;10.20;86.90
49413;DHT22;35493;50.276;9.372;2023-03-14T01:54:12;10.20;86.80
49413;DHT22;35493;50.276;9.372;2023-03-14T01:56:52;10.20;86.80
49413;DHT22;35493;50.276;9.372;2023-03-14T01:59:26;10.20;86.80
49413;DHT22;35493;50.276;9.372;2023-03-14T02:02:01;10.20;86.80
49413;DHT22;35493;50.276;9.372;2023-03-14T02:04:38;10.20;86.80
49413;DHT22;35493;50.276;9.372;2023-03-14T02:07:16;10.20;86.80
49413;DHT22;35493;50.276;9.372;2023-03-14T02:10:01;10.20;86.70
49413;DHT22;35493;50.276;9.372;2023-03-14T02:12:36;10.20;86.70
49413;DHT22;35493;50.276;9.372;2023-03-14T02:15:27;10.20;86.60
49413;DHT22;35493;50.276;9.372;2023-03-14T02:18:12;10.20;86.50
49413;DHT22;35493;50.276;9.372;2023-03-14T02:21:00;10.20;86.60
49413;DHT22;35493;50.276;9.372;2023-03-14T02:23:51;10.20;86.40
49413;DHT22;35493;50.276;9.372;2023-03-14T02:26:38;10.20;86.30
49413;DHT22;35493;50.276;9.372;2023-03-14T02:29:13;10.20;86.20
49413;DHT22;35493;50.276;9.372;2023-03-14T02:31:47;10.20;86.10
49413;DHT22;35493;50.276;9.372;2023-03-14T02:34:35;10.20;86.00
49413;DHT22;35493;50.276;9.372;2023-03-14T02:37:09;10.10;85.80
49413;DHT22;35493;50.276;9.372;2023-03-14T02:39:44;10.10;85.90
49413;DHT22;35493;50.276;9.372;2023-03-14T02:42:20;10.10;85.90
49413;DHT22;35493;50.276;9.372;2023-03-14T02:47:59;10.20;85.80
49413;DHT22;35493;50.276;9.372;2023-03-14T02:50:37;10.10;85.80
49413;DHT22;35493;50.276;9.372;2023-03-14T02:53:13;10.10;85.80
49413;DHT22;35493;50.276;9.372;2023-03-14T02:55:48;10.10;85.90
49413;DHT22;35493;50.276;9.372;2023-03-14T02:58:23;10.10;85.90
49413;DHT22;35493;50.276;9.372;2023-03-14T03:01:07;10.10;86.00
49413;DHT22;35493;50.276;9.372;2023-03-14T03:03:41;10.10;86.00
49413;DHT22;35493;50.276;9.372;2023-03-14T03:06:14;10.10;86.00
49413;DHT22;35493;50.276;9.372;2023-03-14T03:08:48;10.10;86.00
49413;DHT22;35493;50.276;9.372;2023-03-14T03:11:21;10.10;86.10
49413;DHT22;35493;50.276;9.372;2023-03-14T03:13:54;10.10;86.10
49413;DHT22;35493;50.276;9.372;2023-03-14T03:16:30;10.10;86.10
49413;DHT22;35493;50.276;9.372;2023-03-14T03:19:03;10.10;86.00
49413;DHT22;35493;50.276;9.372;2023-03-14T03:21:36;10.20;85.90
49413;DHT22;35493;50.276;9.372;2023-03-14T03:24:11;10.20;85.90
49413;DHT22;35493;50.276;9.372;2023-03-14T03:26:45;10.20;85.80
49413;DHT22;35493;50.276;9.372;2023-03-14T03:29:18;10.10;85.80
49413;DHT22;35493;50.276;9.372;2023-03-14T03:31:52;10.20;85.70
49413;DHT22;35493;50.276;9.372;2023-03-14T03:34:40;10.10;85.70
49413;DHT22;35493;50.276;9.372;2023-03-14T03:37:13;10.10;85.60
49413;DHT22;35493;50.276;9.372;2023-03-14T03:39:47;10.10;85.50
49413;DHT22;35493;50.276;9.372;2023-03-14T03:42:23;10.10;85.50
49413;DHT22;35493;50.276;9.372;2023-03-14T03:44:57;10.10;85.50
49413;DHT22;35493;50.276;9.372;2023-03-14T03:47:35;10.20;85.50
49413;DHT22;35493;50.276;9.372;2023-03-14T03:50:10;10.20;85.40
49413;DHT22;35493;50.276;9.372;2023-03-14T03:52:44;10.10;85.40
49413;DHT22;35493;50.276;9.372;2023-03-14T03:55:17;10.20;85.40
49413;DHT22;35493;50.276;9.372;2023-03-14T03:57:50;10.10;85.50
49413;DHT22;35493;50.276;9.372;2023-03-14T04:00:23;10.10;85.50
49413;DHT22;35493;50.276;9.372;2023-03-14T04:02:58;10.10;85.50
49413;DHT22;35493;50.276;9.372;2023-03-14T04:05:33;10.20;85.50
49413;DHT22;35493;50.276;9.372;2023-03-14T04:08:08;10.10;85.60
49413;DHT22;35493;50.276;9.372;2023-03-14T04:10:42;10.10;85.50
49413;DHT22;35493;50.276;9.372;2023-03-14T04:13:20;10.10;85.50
49413;DHT22;35493;50.276;9.372;2023-03-14T04:15:56;10.10;85.40
49413;DHT22;35493;50.276;9.372;2023-03-14T04:18:30;10.10;85.50
49413;DHT22;35493;50.276;9.372;2023-03-14T04:21:04;10.10;85.40
49413;DHT22;35493;50.276;9.372;2023-03-14T04:23:47;10.10;85.40
49413;DHT22;35493;50.276;9.372;2023-03-14T04:26:20;10.10;85.40
49413;DHT22;35493;50.276;9.372;2023-03-14T04:28:47;10.10;85.30
49413;DHT22;35493;50.276;9.372;2023-03-14T04:31:22;10.10;85.20
49413;DHT22;35493;50.276;9.372;2023-03-14T04:33:57;10.10;85.20
49413;DHT22;35493;50.276;9.372;2023-03-14T04:36:44;10.10;85.20
49413;DHT22;35493;50.276;9.372;2023-03-14T04:39:23;10.10;85.10
49413;DHT22;35493;50.276;9.372;2023-03-14T04:42:13;10.10;85.00
49413;DHT22;35493;50.276;9.372;2023-03-14T04:44:47;10.10;85.00
49413;DHT22;35493;50.276;9.372;2023-03-14T04:47:24;10.20;85.10
49413;DHT22;35493;50.276;9.372;2023-03-14T04:50:01;10.10;85.00
49413;DHT22;35493;50.276;9.372;2023-03-14T04:52:34;10.20;84.90
49413;DHT22;35493;50.276;9.372;2023-03-14T04:55:07;10.10;84.80
49413;DHT22;35493;50.276;9.372;2023-03-14T04:57:41;10.10;84.90
49413;DHT22;35493;50.276;9.372;2023-03-14T05:00:14;10.20;84.80
49413;DHT22;35493;50.276;9.372;2023-03-14T05:03:09;10.20;84.80
49413;DHT22;35493;50.276;9.372;2023-03-14T05:06:21;10.10;84.80
49413;DHT22;35493;50.276;9.372;2023-03-14T05:09:13;10.10;84.80
49413;DHT22;35493;50.276;9.372;2023-03-14T05:11:59;10.10;84.60
49413;DHT22;35493;50.276;9.372;2023-03-14T05:14:54;10.10;84.50
49413;DHT22;35493;50.276;9.372;2023-03-14T05:17:40;10.10;84.50
49413;DHT22;35493;50.276;9.372;2023-03-14T05:20:51;10.10;84.50
49413;DHT22;35493;50.276;9.372;2023-03-14T05:23:45;10.10;84.40
49413;DHT22;35493;50.276;9.372;2023-03-14T05:26:36;10.10;84.30
49413;DHT22;35493;50.276;9.372;2023-03-14T05:29:24;10.10;84.20
49413;DHT22;35493;50.276;9.372;2023-03-14T05:32:16;10.10;84.20
49413;DHT22;35493;50.276;9.372;2023-03-14T05:35:15;10.10;84.20
49413;DHT22;35493;50.276;9.372;2023-03-14T05:38:16;10.10;84.30
49413;DHT22;35493;50.276;9.372;2023-03-14T05:41:14;10.10;84.30
49413;DHT22;35493;50.276;9.372;2023-03-14T05:43:57;10.10;84.50
49413;DHT22;35493;50.276;9.372;2023-03-14T05:46:58;10.10;84.50
49413;DHT22;35493;50.276;9.372;2023-03-14T05:49:58;10.10;84.60
49413;DHT22;35493;50.276;9.372;2023-03-14T05:52:47;10.10;84.50
49413;DHT22;35493;50.276;9.372;2023-03-14T05:55:41;10.10;84.60
49413;DHT22;35493;50.276;9.372;2023-03-14T05:58:29;10.10;84.40
49413;DHT22;35493;50.276;9.372;2023-03-14T06:01:25;10.10;84.40
49413;DHT22;35493;50.276;9.372;2023-03-14T06:04:18;10.10;84.40
49413;DHT22;35493;50.276;9.372;2023-03-14T06:06:56;10.10;84.40
49413;DHT22;35493;50.276;9.372;2023-03-14T06:09:30;10.10;84.30
49413;DHT22;35493;50.276;9.372;2023-03-14T06:12:04;10.10;84.30
49413;DHT22;35493;50.276;9.372;2023-03-14T06:14:47;10.10;84.10
49413;DHT22;35493;50.276;9.372;2023-03-14T06:17:20;10.10;84.10
49413;DHT22;35493;50.276;9.372;2023-03-14T06:20:01;10.10;84.00
49413;DHT22;35493;50.276;9.372;2023-03-14T06:22:35;10.10;83.90
49413;DHT22;35493;50.276;9.372;2023-03-14T06:25:11;10.10;84.00
49413;DHT22;35493;50.276;9.372;2023-03-14T06:27:47;10.10;84.10
49413;DHT22;35493;50.276;9.372;2023-03-14T06:30:17;10.10;84.40
49413;DHT22;35493;50.276;9.372;2023-03-14T06:32:51;10.10;84.70
49413;DHT22;35493;50.276;9.372;2023-03-14T06:35:26;10.10;85.00
49413;DHT22;35493;50.276;9.372;2023-03-14T06:37:59;10.00;85.10
49413;DHT22;35493;50.276;9.372;2023-03-14T06:40:32;10.10;85.40
49413;DHT22;35493;50.276;9.372;2023-03-14T06:43:12;10.10;85.70
49413;DHT22;35493;50.276;9.372;2023-03-14T06:45:47;10.10;85.80
49413;DHT22;35493;50.276;9.372;2023-03-14T06:48:21;10.10;86.10
49413;DHT22;35493;50.276;9.372;2023-03-14T06:50:55;10.00;86.20
49413;DHT22;35493;50.276;9.372;2023-03-14T06:53:28;10.10;86.10
49413;DHT22;35493;50.276;9.372;2023-03-14T06:56:02;10.10;86.70
49413;DHT22;35493;50.276;9.372;2023-03-14T06:58:36;10.10;86.80
49413;DHT22;35493;50.276;9.372;2023-03-14T07:01:20;10.10;87.00
49413;DHT22;35493;50.276;9.372;2023-03-14T07:03:59;10.10;87.00
49413;DHT22;35493;50.276;9.372;2023-03-14T07:06:35;10.10;87.20
49413;DHT22;35493;50.276;9.372;2023-03-14T07:09:09;10.10;86.90
49413;DHT22;35493;50.276;9.372;2023-03-14T07:11:49;10.20;87.10
49413;DHT22;35493;50.276;9.372;2023-03-14T07:14:22;10.20;87.10
49413;DHT22;35493;50.276;9.372;2023-03-14T07:16:57;10.20;87.50
49413;DHT22;35493;50.276;9.372;2023-03-14T07:19:31;10.10;87.70
49413;DHT22;35493;50.276;9.372;2023-03-14T07:22:04;10.10;87.60
49413;DHT22;35493;50.276;9.372;2023-03-14T07:24:38;10.10;87.60
49413;DHT22;35493;50.276;9.372;2023-03-14T07:27:11;10.10;87.60
49413;DHT22;35493;50.276;9.372;2023-03-14T07:29:44;10.10;87.50
49413;DHT22;35493;50.276;9.372;2023-03-14T07:32:19;10.10;87.50
49413;DHT22;35493;50.276;9.372;2023-03-14T07:34:52;10.10;87.60
49413;DHT22;35493;50.276;9.372;2023-03-14T07:37:25;10.10;87.50
49413;DHT22;35493;50.276;9.372;2023-03-14T07:40:00;10.10;87.60
49413;DHT22;35493;50.276;9.372;2023-03-14T07:42:37;10.10;87.60
49413;DHT22;35493;50.276;9.372;2023-03-14T07:45:15;10.10;87.50
49413;DHT22;35493;50.276;9.372;2023-03-14T07:47:49;10.10;87.40
49413;DHT22;35493;50.276;9.372;2023-03-14T07:50:23;10.10;87.50
49413;DHT22;35493;50.276;9.372;2023-03-14T07:52:57;10.00;87.20
49413;DHT22;35493;50.276;9.372;2023-03-14T07:55:30;10.10;87.30
49413;DHT22;35493;50.276;9.372;2023-03-14T07:58:03;10.10;87.40
49413;DHT22;35493;50.276;9.372;2023-03-14T08:00:36;10.10;87.20
49413;DHT22;35493;50.276;9.372;2023-03-14T08:03:11;10.10;87.50
49413;DHT22;35493;50.276;9.372;2023-03-14T08:05:47;10.10;87.40
49413;DHT22;35493;50.276;9.372;2023-03-14T08:08:21;10.10;87.70
49413;DHT22;35493;50.276;9.372;2023-03-14T08:10:54;10.10;87.40
49413;DHT22;35493;50.276;9.372;2023-03-14T08:13:27;10.10;87.40
49413;DHT22;35493;50.276;9.372;2023-03-14T08:16:00;10.10;87.40
49413;DHT22;35493;50.276;9.372;2023-03-14T08:18:34;10.10;87.30
49413;DHT22;35493;50.276;9.372;2023-03-14T08:21:08;10.10;87.60
49413;DHT22;35493;50.276;9.372;2023-03-14T08:23:41;10.10;87.80
49413;DHT22;35493;50.276;9.372;2023-03-14T08:26:14;10.10;87.60
49413;DHT22;35493;50.276;9.372;2023-03-14T08:28:47;10.10;87.60
49413;DHT22;35493;50.276;9.372;2023-03-14T08:31:21;10.10;87.60
49413;DHT22;35493;50.276;9.372;2023-03-14T08:34:02;10.20;87.60
49413;DHT22;35493;50.276;9.372;2023-03-14T08:36:36;10.20;87.30
49413;DHT22;35493;50.276;9.372;2023-03-14T08:39:09;10.20;87.20
49413;DHT22;35493;50.276;9.372;2023-03-14T08:41:42;10.20;87.30
49413;DHT22;35493;50.276;9.372;2023-03-14T08:44:16;10.20;87.10
49413;DHT22;35493;50.276;9.372;2023-03-14T08:46:49;10.30;87.00
49413;DHT22;35493;50.276;9.372;2023-03-14T08:49:23;10.20;87.10
49413;DHT22;35493;50.276;9.372;2023-03-14T08:51:57;10.20;87.00
49413;DHT22;35493;50.276;9.372;2023-03-14T08:54:31;10.20;86.90
49413;DHT22;35493;50.276;9.372;2023-03-14T08:57:04;10.20;86.80
49413;DHT22;35493;50.276;9.372;2023-03-14T08:59:37;10.20;86.80
49413;DHT22;35493;50.276;9.372;2023-03-14T09:02:11;10.20;86.80
49413;DHT22;35493;50.276;9.372;2023-03-14T09:04:46;10.20;86.80
49413;DHT22;35493;50.276;9.372;2023-03-14T09:07:20;10.20;86.60
49413;DHT22;35493;50.276;9.372;2023-03-14T09:09:53;10.20;86.60
49413;DHT22;35493;50.276;9.372;2023-03-14T09:12:26;10.30;86.60
49413;DHT22;35493;50.276;9.372;2023-03-14T09:14:59;10.30;86.40
49413;DHT22;35493;50.276;9.372;2023-03-14T09:17:32;10.30;86.20
49413;DHT22;35493;50.276;9.372;2023-03-14T09:20:07;10.30;86.20
49413;DHT22;35493;50.276;9.372;2023-03-14T09:22:41;10.40;86.20
49413;DHT22;35493;50.276;9.372;2023-03-14T09:25:14;10.40;86.10
49413;DHT22;35493;50.276;9.372;2023-03-14T09:27:47;10.40;85.90
49413;DHT22;35493;50.276;9.372;2023-03-14T09:30:20;10.40;85.80
49413;DHT22;35493;50.276;9.372;2023-03-14T09:33:00;10.40;85.60
49413;DHT22;35493;50.276;9.372;2023-03-14T09:35:34;10.50;85.70
49413;DHT22;35493;50.276;9.372;2023-03-14T09:38:08;10.60;85.70
49413;DHT22;35493;50.276;9.372;2023-03-14T09:40:42;10.70;85.60
49413;DHT22;35493;50.276;9.372;2023-03-14T09:43:16;10.70;85.50
49413;DHT22;35493;50.276;9.372;2023-03-14T09:45:50;10.70;85.30
49413;DHT22;35493;50.276;9.372;2023-03-14T09:48:27;10.70;85.10
49413;DHT22;35493;50.276;9.372;2023-03-14T09:51:07;10.70;84.90
49413;DHT22;35493;50.276;9.372;2023-03-14T09:53:45;10.70;85.00
49413;DHT22;35493;50.276;9.372;2023-03-14T09:56:16;10.70;85.00
49413;DHT22;35493;50.276;9.372;2023-03-14T09:58:52;10.70;84.90
49413;DHT22;35493;50.276;9.372;2023-03-14T10:01:28;10.70;84.80
49413;DHT22;35493;50.276;9.372;2023-03-14T10:04:05;10.70;84.60
49413;DHT22;35493;50.276;9.372;2023-03-14T10:06:40;10.70;84.60
49413;DHT22;35493;50.276;9.372;2023-03-14T10:09:19;10.70;84.40
49413;DHT22;35493;50.276;9.372;2023-03-14T10:11:58;10.80;84.40
49413;DHT22;35493;50.276;9.372;2023-03-14T10:14:33;10.80;84.10
49413;DHT22;35493;50.276;9.372;2023-03-14T10:17:09;10.70;83.80
49413;DHT22;35493;50.276;9.372;2023-03-14T10:19:54;10.80;83.60
49413;DHT22;35493;50.276;9.372;2023-03-14T10:22:31;10.90;83.80
49413;DHT22;35493;50.276;9.372;2023-03-14T10:25:06;10.80;83.70
49413;DHT22;35493;50.276;9.372;2023-03-14T10:27:59;10.90;83.70
49413;DHT22;35493;50.276;9.372;2023-03-14T10:30:40;10.90;83.60
49413;DHT22;35493;50.276;9.372;2023-03-14T10:33:21;10.80;84.00
49413;DHT22;35493;50.276;9.372;2023-03-14T10:35:57;10.90;84.60
49413;DHT22;35493;50.276;9.372;2023-03-14T10:38:38;10.80;85.00
49413;DHT22;35493;50.276;9.372;2023-03-14T10:41:18;10.90;85.10
49413;DHT22;35493;50.276;9.372;2023-03-14T10:43:54;10.90;85.30
49413;DHT22;35493;50.276;9.372;2023-03-14T10:46:31;10.90;85.60
49413;DHT22;35493;50.276;9.372;2023-03-14T10:49:27;10.90;85.70
49413;DHT22;35493;50.276;9.372;2023-03-14T10:52:09;10.90;85.80
49413;DHT22;35493;50.276;9.372;2023-03-14T10:54:48;10.90;86.10
49413;DHT22;35493;50.276;9.372;2023-03-14T10:57:22;10.90;86.30
49413;DHT22;35493;50.276;9.372;2023-03-14T10:59:56;10.90;86.10
49413;DHT22;35493;50.276;9.372;2023-03-14T11:02:37;10.90;86.90
49413;DHT22;35493;50.276;9.372;2023-03-14T11:05:24;10.90;86.80
49413;DHT22;35493;50.276;9.372;2023-03-14T11:08:02;11.00;86.90
49413;DHT22;35493;50.276;9.372;2023-03-14T11:10:44;10.90;87.00
49413;DHT22;35493;50.276;9.372;2023-03-14T11:13:24;11.00;87.20
49413;DHT22;35493;50.276;9.372;2023-03-14T11:16:01;11.10;86.90
49413;DHT22;35493;50.276;9.372;2023-03-14T11:18:51;11.10;86.80
49413;DHT22;35493;50.276;9.372;2023-03-14T11:21:44;11.10;86.60
49413;DHT22;35493;50.276;9.372;2023-03-14T11:24:33;11.10;86.60
49413;DHT22;35493;50.276;9.372;2023-03-14T11:27:23;11.10;86.60
49413;DHT22;35493;50.276;9.372;2023-03-14T11:30:00;11.10;86.60
49413;DHT22;35493;50.276;9.372;2023-03-14T11:32:47;11.10;86.80
49413;DHT22;35493;50.276;9.372;2023-03-14T11:35:26;11.10;86.80
49413;DHT22;35493;50.276;9.372;2023-03-14T11:38:10;11.10;87.00
49413;DHT22;35493;50.276;9.372;2023-03-14T11:40:47;11.00;87.00
49413;DHT22;35493;50.276;9.372;2023-03-14T11:43:27;11.00;87.00
49413;DHT22;35493;50.276;9.372;2023-03-14T11:46:05;11.00;86.90
49413;DHT22;35493;50.276;9.372;2023-03-14T11:48:44;11.00;87.10
49413;DHT22;35493;50.276;9.372;2023-03-14T11:51:24;11.00;87.00
49413;DHT22;35493;50.276;9.372;2023-03-14T11:54:04;11.00;87.10
49413;DHT22;35493;50.276;9.372;2023-03-14T11:56:46;11.00;87.10
49413;DHT22;35493;50.276;9.372;2023-03-14T11:59:27;10.90;87.20
49413;DHT22;35493;50.276;9.372;2023-03-14T12:02:04;10.90;87.30
49413;DHT22;35493;50.276;9.372;2023-03-14T12:04:49;10.90;87.50
49413;DHT22;35493;50.276;9.372;2023-03-14T12:07:31;10.80;87.70
49413;DHT22;35493;50.276;9.372;2023-03-14T12:10:14;10.80;87.90
49413;DHT22;35493;50.276;9.372;2023-03-14T12:12:48;10.80;88.00
49413;DHT22;35493;50.276;9.372;2023-03-14T12:15:23;10.70;88.10
49413;DHT22;35493;50.276;9.372;2023-03-14T12:17:57;10.80;88.30
49413;DHT22;35493;50.276;9.372;2023-03-14T12:20:30;10.80;88.10
49413;DHT22;35493;50.276;9.372;2023-03-14T12:23:04;10.80;88.10
49413;DHT22;35493;50.276;9.372;2023-03-14T12:25:39;10.80;88.20
49413;DHT22;35493;50.276;9.372;2023-03-14T12:28:19;10.80;88.50
49413;DHT22;35493;50.276;9.372;2023-03-14T12:30:54;10.70;88.60
49413;DHT22;35493;50.276;9.372;2023-03-14T12:33:35;10.80;88.60
49413;DHT22;35493;50.276;9.372;2023-03-14T12:36:18;10.80;88.60
49413;DHT22;35493;50.276;9.372;2023-03-14T12:39:10;10.70;88.80
49413;DHT22;35493;50.276;9.372;2023-03-14T12:41:51;10.80;88.90
49413;DHT22;35493;50.276;9.372;2023-03-14T12:44:44;10.80;89.00
49413;DHT22;35493;50.276;9.372;2023-03-14T12:47:49;10.80;88.80
49413;DHT22;35493;50.276;9.372;2023-03-14T12:50:32;10.70;89.00
49413;DHT22;35493;50.276;9.372;2023-03-14T12:53:38;10.50;86.90
49413;DHT22;35493;50.276;9.372;2023-03-14T12:56:38;10.30;85.90
49413;DHT22;35493;50.276;9.372;2023-03-14T12:59:30;10.10;85.60
49413;DHT22;35493;50.276;9.372;2023-03-14T13:02:20;10.00;85.00
49413;DHT22;35493;50.276;9.372;2023-03-14T13:05:03;9.90;85.90
49413;DHT22;35493;50.276;9.372;2023-03-14T13:08:02;9.90;85.60
49413;DHT22;35493;50.276;9.372;2023-03-14T13:10:42;9.90;85.00
49413;DHT22;35493;50.276;9.372;2023-03-14T13:13:20;9.90;85.50
49413;DHT22;35493;50.276;9.372;2023-03-14T13:15:55;9.90;85.10
49413;DHT22;35493;50.276;9.372;2023-03-14T13:18:36;9.90;85.00
49413;DHT22;35493;50.276;9.372;2023-03-14T13:21:14;9.90;85.50
49413;DHT22;35493;50.276;9.372;2023-03-14T13:23:57;9.90;84.90
49413;DHT22;35493;50.276;9.372;2023-03-14T13:26:35;10.00;85.30
49413;DHT22;35493;50.276;9.372;2023-03-14T13:29:15;10.00;84.70
49413;DHT22;35493;50.276;9.372;2023-03-14T13:31:50;10.00;85.10
49413;DHT22;35493;50.276;9.372;2023-03-14T13:34:33;10.00;84.50
49413;DHT22;35493;50.276;9.372;2023-03-14T13:37:16;10.00;84.70
49413;DHT22;35493;50.276;9.372;2023-03-14T13:39:50;10.10;84.50
49413;DHT22;35493;50.276;9.372;2023-03-14T13:42:25;10.00;84.80
49413;DHT22;35493;50.276;9.372;2023-03-14T13:45:00;10.00;84.30
49413;DHT22;35493;50.276;9.372;2023-03-14T13:47:33;10.00;84.50
49413;DHT22;35493;50.276;9.372;2023-03-14T13:50:17;9.90;84.30
49413;DHT22;35493;50.276;9.372;2023-03-14T13:52:57;9.80;84.30
49413;DHT22;35493;50.276;9.372;2023-03-14T13:55:31;9.80;84.50
49413;DHT22;35493;50.276;9.372;2023-03-14T13:58:04;9.80;84.30
49413;DHT22;35493;50.276;9.372;2023-03-14T14:00:37;9.80;84.60
49413;DHT22;35493;50.276;9.372;2023-03-14T14:03:11;9.90;84.30
49413;DHT22;35493;50.276;9.372;2023-03-14T14:05:44;9.90;84.70
49413;DHT22;35493;50.276;9.372;2023-03-14T14:08:19;9.90;84.40
49413;DHT22;35493;50.276;9.372;2023-03-14T14:10:58;9.90;84.40
49413;DHT22;35493;50.276;9.372;2023-03-14T14:13:33;9.90;84.40
49413;DHT22;35493;50.276;9.372;2023-03-14T14:16:09;10.00;84.40
49413;DHT22;35493;50.276;9.372;2023-03-14T14:18:42;10.00;84.30
49413;DHT22;35493;50.276;9.372;2023-03-14T14:21:16;10.00;84.20
49413;DHT22;35493;50.276;9.372;2023-03-14T14:23:51;10.00;84.10
49413;DHT22;35493;50.276;9.372;2023-03-14T14:26:26;10.00;84.50
49413;DHT22;35493;50.276;9.372;2023-03-14T14:29:03;10.10;84.60
49413;DHT22;35493;50.276;9.372;2023-03-14T14:31:37;10.20;84.30
49413;DHT22;35493;50.276;9.372;2023-03-14T14:34:19;10.10;83.90
49413;DHT22;35493;50.276;9.372;2023-03-14T14:36:59;10.10;83.90
49413;DHT22;35493;50.276;9.372;2023-03-14T14:39:33;10.10;84.20
49413;DHT22;35493;50.276;9.372;2023-03-14T14:42:13;10.00;83.70
49413;DHT22;35493;50.276;9.372;2023-03-14T14:44:48;10.00;83.40
49413;DHT22;35493;50.276;9.372;2023-03-14T14:47:25;10.00;82.20
49413;DHT22;35493;50.276;9.372;2023-03-14T14:49:53;9.90;81.50
49413;DHT22;35493;50.276;9.372;2023-03-14T14:52:39;9.80;81.40
49413;DHT22;35493;50.276;9.372;2023-03-14T14:55:18;9.80;81.70
49413;DHT22;35493;50.276;9.372;2023-03-14T14:57:54;9.90;81.60
49413;DHT22;35493;50.276;9.372;2023-03-14T15:00:28;10.00;82.40
49413;DHT22;35493;50.276;9.372;2023-03-14T15:03:02;9.90;81.60
49413;DHT22;35493;50.276;9.372;2023-03-14T15:05:38;9.90;81.50
49413;DHT22;35493;50.276;9.372;2023-03-14T15:08:12;10.00;81.70
49413;DHT22;35493;50.276;9.372;2023-03-14T15:10:47;10.10;81.50
49413;DHT22;35493;50.276;9.372;2023-03-14T15:13:21;10.10;81.20
49413;DHT22;35493;50.276;9.372;2023-03-14T15:15:54;10.00;80.90
49413;DHT22;35493;50.276;9.372;2023-03-14T15:18:29;10.00;81.00
49413;DHT22;35493;50.276;9.372;2023-03-14T15:21:10;9.90;81.20
49413;DHT22;35493;50.276;9.372;2023-03-14T15:23:44;9.90;80.50
49413;DHT22;35493;50.276;9.372;2023-03-14T15:26:20;9.80;80.00
49413;DHT22;35493;50.276;9.372;2023-03-14T15:28:53;9.80;81.10
49413;DHT22;35493;50.276;9.372;2023-03-14T15:31:27;9.80;79.90
49413;DHT22;35493;50.276;9.372;2023-03-14T15:34:00;9.80;80.10
49413;DHT22;35493;50.276;9.372;2023-03-14T15:36:47;9.80;80.50
49413;DHT22;35493;50.276;9.372;2023-03-14T15:39:20;9.80;80.90
49413;DHT22;35493;50.276;9.372;2023-03-14T15:41:54;9.70;80.20
49413;DHT22;35493;50.276;9.372;2023-03-14T15:44:28;9.70;80.00
49413;DHT22;35493;50.276;9.372;2023-03-14T15:47:01;9.60;79.90
49413;DHT22;35493;50.276;9.372;2023-03-14T15:49:35;9.50;79.90
49413;DHT22;35493;50.276;9.372;2023-03-14T15:52:08;9.40;80.60
49413;DHT22;35493;50.276;9.372;2023-03-14T15:54:42;9.30;80.30
49413;DHT22;35493;50.276;9.372;2023-03-14T15:57:16;9.30;80.00
49413;DHT22;35493;50.276;9.372;2023-03-14T15:59:50;9.30;81.10
49413;DHT22;35493;50.276;9.372;2023-03-14T16:02:23;9.20;80.60
49413;DHT22;35493;50.276;9.372;2023-03-14T16:04:56;9.20;80.90
49413;DHT22;35493;50.276;9.372;2023-03-14T16:07:29;9.10;81.00
49413;DHT22;35493;50.276;9.372;2023-03-14T16:10:03;9.00;81.30
49413;DHT22;35493;50.276;9.372;2023-03-14T16:12:38;9.00;81.90
49413;DHT22;35493;50.276;9.372;2023-03-14T16:15:11;9.00;81.70
49413;DHT22;35493;50.276;9.372;2023-03-14T16:17:44;9.00;82.00
49413;DHT22;35493;50.276;9.372;2023-03-14T16:20:17;8.90;81.90
49413;DHT22;35493;50.276;9.372;2023-03-14T16:22:51;8.90;82.00
49413;DHT22;35493;50.276;9.372;2023-03-14T16:25:24;8.90;81.60
49413;DHT22;35493;50.276;9.372;2023-03-14T16:27:58;8.80;81.60
49413;DHT22;35493;50.276;9.372;2023-03-14T16:30:32;8.90;81.50
49413;DHT22;35493;50.276;9.372;2023-03-14T16:33:05;8.80;81.10
49413;DHT22;35493;50.276;9.372;2023-03-14T16:35:41;8.80;81.30
49413;DHT22;35493;50.276;9.372;2023-03-14T16:38:25;8.90;81.70
49413;DHT22;35493;50.276;9.372;2023-03-14T16:41:01;8.80;81.00
49413;DHT22;35493;50.276;9.372;2023-03-14T16:43:35;8.80;81.30